sensor_id;sensor_type;location;lat;lon;timestamp;pressure;altitude;pressure_sealevel;temperature;humidity
83140;BME280;73027;54.208;19.128;2023-12-20T00:00:57;100457.28;;;7.32;81.45
83140;BME280;73027;54.208;19.128;2023-12-20T00:03:23;100469.88;;;7.41;80.65
83140;BME280;73027;54.208;19.128;2023-12-20T00:05:49;100453.09;;;7.30;81.06
83140;BME280;73027;54.208;19.128;2023-12-20T00:08:16;100464.84;;;7.37;81.23
83140;BME280;73027;54.208;19.128;2023-12-20T00:10:43;100472.44;;;7.41;81.01
83140;BME280;73027;54.208;19.128;2023-12-20T00:13:08;100471.59;;;7.41;80.81
83140;BME280;73027;54.208;19.128;2023-12-20T00:15:34;100471.53;;;7.42;81.28
83140;BME280;73027;54.208;19.128;2023-12-20T00:18:00;100468.28;;;7.36;81.02
83140;BME280;73027;54.208;19.128;2023-12-20T00:20:26;100465.81;;;7.33;81.06
83140;BME280;73027;54.208;19.128;2023-12-20T00:22:53;100476.84;;;7.35;81.52
83140;BME280;73027;54.208;19.128;2023-12-20T00:25:18;100484.59;;;7.33;81.02
83140;BME280;73027;54.208;19.128;2023-12-20T00:27:44;100487.38;;;7.24;81.20
83140;BME280;73027;54.208;19.128;2023-12-20T00:30:10;100481.31;;;7.27;81.75
83140;BME280;73027;54.208;19.128;2023-12-20T00:32:35;100487.28;;;7.27;81.79
83140;BME280;73027;54.208;19.128;2023-12-20T00:35:01;100482.13;;;7.29;81.97
83140;BME280;73027;54.208;19.128;2023-12-20T00:37:26;100485.47;;;7.31;82.11
83140;BME280;73027;54.208;19.128;2023-12-20T00:39:52;100486.25;;;7.34;81.80
83140;BME280;73027;54.208;19.128;2023-12-20T00:42:17;100474.25;;;7.36;81.82
83140;BME280;73027;54.208;19.128;2023-12-20T00:44:43;100492.13;;;7.38;81.71
83140;BME280;73027;54.208;19.128;2023-12-20T00:47:08;100474.34;;;7.33;82.07
83140;BME280;73027;54.208;19.128;2023-12-20T00:49:33;100481.28;;;7.28;82.00
83140;BME280;73027;54.208;19.128;2023-12-20T00:51:59;100472.78;;;7.26;82.18
83140;BME280;73027;54.208;19.128;2023-12-20T00:54:27;100471.25;;;7.19;82.78
83140;BME280;73027;54.208;19.128;2023-12-20T00:56:52;100464.53;;;7.15;83.86
83140;BME280;73027;54.208;19.128;2023-12-20T00:59:18;100460.34;;;7.11;83.18
83140;BME280;73027;54.208;19.128;2023-12-20T01:01:43;100450.88;;;7.14;83.73
83140;BME280;73027;54.208;19.128;2023-12-20T01:04:09;100456.91;;;7.13;84.22
83140;BME280;73027;54.208;19.128;2023-12-20T01:06:35;100456.06;;;7.11;84.82
83140;BME280;73027;54.208;19.128;2023-12-20T01:09:00;100447.59;;;7.09;84.43
83140;BME280;73027;54.208;19.128;2023-12-20T01:11:26;100436.50;;;7.10;84.45
83140;BME280;73027;54.208;19.128;2023-12-20T01:13:51;100438.13;;;7.13;84.15
83140;BME280;73027;54.208;19.128;2023-12-20T01:16:17;100425.41;;;7.10;83.99
83140;BME280;73027;54.208;19.128;2023-12-20T01:18:42;100449.06;;;7.19;84.27
83140;BME280;73027;54.208;19.128;2023-12-20T01:21:07;100442.41;;;7.12;84.04
83140;BME280;73027;54.208;19.128;2023-12-20T01:23:33;100437.25;;;7.14;83.84
83140;BME280;73027;54.208;19.128;2023-12-20T01:25:58;100445.81;;;7.13;83.70
83140;BME280;73027;54.208;19.128;2023-12-20T01:28:26;100433.75;;;7.16;84.16
83140;BME280;73027;54.208;19.128;2023-12-20T01:30:51;100442.97;;;7.24;84.19
83140;BME280;73027;54.208;19.128;2023-12-20T01:33:17;100440.31;;;7.27;83.46
83140;BME280;73027;54.208;19.128;2023-12-20T01:35:43;100444.59;;;7.26;83.76
83140;BME280;73027;54.208;19.128;2023-12-20T01:38:08;100436.91;;;7.26;83.51
83140;BME280;73027;54.208;19.128;2023-12-20T01:40:34;100435.25;;;7.25;83.41
83140;BME280;73027;54.208;19.128;2023-12-20T01:43:01;100439.44;;;7.28;83.51
83140;BME280;73027;54.208;19.128;2023-12-20T01:45:26;100440.09;;;7.36;84.29
83140;BME280;73027;54.208;19.128;2023-12-20T01:47:55;100442.28;;;7.49;83.81
83140;BME280;73027;54.208;19.128;2023-12-20T01:50:21;100424.13;;;7.58;83.46
83140;BME280;73027;54.208;19.128;2023-12-20T01:52:47;100447.44;;;7.80;83.40
83140;BME280;73027;54.208;19.128;2023-12-20T01:55:13;100440.22;;;7.94;83.18
83140;BME280;73027;54.208;19.128;2023-12-20T01:57:41;100442.50;;;8.03;82.52
83140;BME280;73027;54.208;19.128;2023-12-20T02:00:09;100439.66;;;8.14;82.00
83140;BME280;73027;54.208;19.128;2023-12-20T02:02:37;100426.88;;;8.12;81.46
83140;BME280;73027;54.208;19.128;2023-12-20T02:05:05;100432.44;;;8.27;81.08
83140;BME280;73027;54.208;19.128;2023-12-20T02:07:31;100441.53;;;8.38;81.05
83140;BME280;73027;54.208;19.128;2023-12-20T02:09:56;100443.94;;;8.44;80.41
83140;BME280;73027;54.208;19.128;2023-12-20T02:12:22;100435.34;;;8.45;80.12
83140;BME280;73027;54.208;19.128;2023-12-20T02:14:48;100451.41;;;8.52;79.83
83140;BME280;73027;54.208;19.128;2023-12-20T02:17:14;100455.56;;;8.56;79.41
83140;BME280;73027;54.208;19.128;2023-12-20T02:19:39;100451.16;;;8.59;78.91
83140;BME280;73027;54.208;19.128;2023-12-20T02:22:11;100443.34;;;8.63;78.66
83140;BME280;73027;54.208;19.128;2023-12-20T02:24:37;100437.34;;;8.64;78.32
83140;BME280;73027;54.208;19.128;2023-12-20T02:27:06;100443.25;;;8.66;78.07
83140;BME280;73027;54.208;19.128;2023-12-20T02:29:32;100446.75;;;8.65;77.85
83140;BME280;73027;54.208;19.128;2023-12-20T02:31:58;100452.63;;;8.68;77.55
83140;BME280;73027;54.208;19.128;2023-12-20T02:34:24;100450.88;;;8.69;77.43
83140;BME280;73027;54.208;19.128;2023-12-20T02:36:49;100453.50;;;8.67;76.90
83140;BME280;73027;54.208;19.128;2023-12-20T02:39:15;100451.81;;;8.66;77.06
83140;BME280;73027;54.208;19.128;2023-12-20T02:41:40;100447.63;;;8.64;76.53
83140;BME280;73027;54.208;19.128;2023-12-20T02:44:06;100444.25;;;8.61;76.65
83140;BME280;73027;54.208;19.128;2023-12-20T02:46:31;100441.88;;;8.55;76.18
83140;BME280;73027;54.208;19.128;2023-12-20T02:48:56;100442.97;;;8.47;76.22
83140;BME280;73027;54.208;19.128;2023-12-20T02:51:22;100432.22;;;8.36;75.91
83140;BME280;73027;54.208;19.128;2023-12-20T02:53:47;100435.06;;;8.25;75.74
83140;BME280;73027;54.208;19.128;2023-12-20T02:56:13;100428.34;;;8.21;75.88
83140;BME280;73027;54.208;19.128;2023-12-20T02:58:39;100438.69;;;8.18;75.86
83140;BME280;73027;54.208;19.128;2023-12-20T03:01:05;100435.28;;;8.18;75.55
83140;BME280;73027;54.208;19.128;2023-12-20T03:03:31;100444.72;;;8.15;74.94
83140;BME280;73027;54.208;19.128;2023-12-20T03:05:57;100443.09;;;8.13;74.98
83140;BME280;73027;54.208;19.128;2023-12-20T03:08:23;100441.38;;;8.13;74.56
83140;BME280;73027;54.208;19.128;2023-12-20T03:10:48;100441.41;;;8.12;74.28
83140;BME280;73027;54.208;19.128;2023-12-20T03:13:14;100439.81;;;8.08;73.93
83140;BME280;73027;54.208;19.128;2023-12-20T03:15:39;100436.38;;;8.09;73.28
83140;BME280;73027;54.208;19.128;2023-12-20T03:18:05;100433.06;;;8.05;73.41
83140;BME280;73027;54.208;19.128;2023-12-20T03:20:31;100426.38;;;8.00;73.63
83140;BME280;73027;54.208;19.128;2023-12-20T03:23:00;100427.09;;;8.05;73.36
83140;BME280;73027;54.208;19.128;2023-12-20T03:25:26;100430.47;;;8.07;72.77
83140;BME280;73027;54.208;19.128;2023-12-20T03:27:52;100421.31;;;7.98;72.67
83140;BME280;73027;54.208;19.128;2023-12-20T03:30:18;100427.31;;;7.97;72.17
83140;BME280;73027;54.208;19.128;2023-12-20T03:32:43;100424.22;;;7.86;72.09
83140;BME280;73027;54.208;19.128;2023-12-20T03:35:09;100421.88;;;7.79;71.93
83140;BME280;73027;54.208;19.128;2023-12-20T03:37:35;100426.38;;;7.69;72.07
83140;BME280;73027;54.208;19.128;2023-12-20T03:40:00;100425.91;;;7.56;71.79
83140;BME280;73027;54.208;19.128;2023-12-20T03:42:26;100438.00;;;7.51;72.40
83140;BME280;73027;54.208;19.128;2023-12-20T03:44:51;100443.31;;;7.44;71.91
83140;BME280;73027;54.208;19.128;2023-12-20T03:47:17;100434.88;;;7.40;72.29
83140;BME280;73027;54.208;19.128;2023-12-20T03:49:42;100444.28;;;7.40;72.09
83140;BME280;73027;54.208;19.128;2023-12-20T03:52:10;100444.25;;;7.41;72.53
83140;BME280;73027;54.208;19.128;2023-12-20T03:54:35;100431.47;;;7.40;72.33
83140;BME280;73027;54.208;19.128;2023-12-20T03:57:01;100432.50;;;7.33;72.11
83140;BME280;73027;54.208;19.128;2023-12-20T03:59:26;100426.63;;;7.29;71.86
83140;BME280;73027;54.208;19.128;2023-12-20T04:01:52;100429.19;;;7.29;71.77
83140;BME280;73027;54.208;19.128;2023-12-20T04:04:17;100439.66;;;7.20;71.92
83140;BME280;73027;54.208;19.128;2023-12-20T04:06:43;100448.28;;;7.16;72.08
83140;BME280;73027;54.208;19.128;2023-12-20T04:09:08;100450.09;;;7.12;72.25
83140;BME280;73027;54.208;19.128;2023-12-20T04:11:34;100439.84;;;7.12;71.70
83140;BME280;73027;54.208;19.128;2023-12-20T04:14:00;100445.75;;;7.14;72.14
83140;BME280;73027;54.208;19.128;2023-12-20T04:16:26;100440.72;;;7.11;72.00
83140;BME280;73027;54.208;19.128;2023-12-20T04:18:51;100446.03;;;7.04;71.81
83140;BME280;73027;54.208;19.128;2023-12-20T04:21:17;100441.81;;;7.01;71.52
83140;BME280;73027;54.208;19.128;2023-12-20T04:23:43;100451.91;;;7.07;72.32
83140;BME280;73027;54.208;19.128;2023-12-20T04:26:09;100455.41;;;7.03;72.02
83140;BME280;73027;54.208;19.128;2023-12-20T04:28:34;100450.47;;;6.97;71.70
83140;BME280;73027;54.208;19.128;2023-12-20T04:31:00;100448.22;;;6.84;72.09
83140;BME280;73027;54.208;19.128;2023-12-20T04:33:25;100453.59;;;6.73;72.38
83140;BME280;73027;54.208;19.128;2023-12-20T04:35:50;100449.56;;;6.63;72.21
83140;BME280;73027;54.208;19.128;2023-12-20T04:38:16;100449.59;;;6.61;72.42
83140;BME280;73027;54.208;19.128;2023-12-20T04:40:42;100447.03;;;6.61;72.89
83140;BME280;73027;54.208;19.128;2023-12-20T04:43:07;100457.25;;;6.61;72.52
83140;BME280;73027;54.208;19.128;2023-12-20T04:45:34;100450.59;;;6.54;72.65
83140;BME280;73027;54.208;19.128;2023-12-20T04:47:59;100451.72;;;6.41;72.12
83140;BME280;73027;54.208;19.128;2023-12-20T04:50:25;100445.97;;;6.32;72.51
83140;BME280;73027;54.208;19.128;2023-12-20T04:52:51;100453.84;;;6.22;72.96
83140;BME280;73027;54.208;19.128;2023-12-20T04:55:16;100470.28;;;6.11;73.49
83140;BME280;73027;54.208;19.128;2023-12-20T04:57:42;100466.22;;;6.02;73.80
83140;BME280;73027;54.208;19.128;2023-12-20T05:00:08;100464.53;;;6.00;73.79
83140;BME280;73027;54.208;19.128;2023-12-20T05:02:35;100444.94;;;6.00;73.70
83140;BME280;73027;54.208;19.128;2023-12-20T05:05:00;100449.09;;;6.06;74.46
83140;BME280;73027;54.208;19.128;2023-12-20T05:07:26;100452.44;;;6.09;74.72
83140;BME280;73027;54.208;19.128;2023-12-20T05:09:51;100451.50;;;6.12;74.15
83140;BME280;73027;54.208;19.128;2023-12-20T05:12:17;100443.69;;;6.19;73.94
83140;BME280;73027;54.208;19.128;2023-12-20T05:14:42;100444.53;;;6.18;73.30
83140;BME280;73027;54.208;19.128;2023-12-20T05:17:10;100448.16;;;6.10;73.85
83140;BME280;73027;54.208;19.128;2023-12-20T05:19:35;100450.88;;;6.01;73.81
83140;BME280;73027;54.208;19.128;2023-12-20T05:22:01;100445.88;;;5.96;73.59
83140;BME280;73027;54.208;19.128;2023-12-20T05:24:27;100434.94;;;5.90;74.34
83140;BME280;73027;54.208;19.128;2023-12-20T05:26:53;100446.78;;;5.92;73.48
83140;BME280;73027;54.208;19.128;2023-12-20T05:29:19;100449.44;;;5.88;73.66
83140;BME280;73027;54.208;19.128;2023-12-20T05:31:44;100461.34;;;5.89;73.80
83140;BME280;73027;54.208;19.128;2023-12-20T05:34:10;100452.84;;;5.88;74.15
83140;BME280;73027;54.208;19.128;2023-12-20T05:36:36;100448.69;;;5.83;73.63
83140;BME280;73027;54.208;19.128;2023-12-20T05:39:01;100449.59;;;5.79;73.84
83140;BME280;73027;54.208;19.128;2023-12-20T05:41:28;100448.84;;;5.72;74.85
83140;BME280;73027;54.208;19.128;2023-12-20T05:43:54;100441.34;;;5.64;74.63
83140;BME280;73027;54.208;19.128;2023-12-20T05:46:19;100427.78;;;5.61;74.97
83140;BME280;73027;54.208;19.128;2023-12-20T05:48:46;100426.19;;;5.55;74.24
83140;BME280;73027;54.208;19.128;2023-12-20T05:51:12;100416.06;;;5.49;75.01
83140;BME280;73027;54.208;19.128;2023-12-20T05:53:38;100416.16;;;5.45;75.78
83140;BME280;73027;54.208;19.128;2023-12-20T05:56:04;100421.31;;;5.43;74.88
83140;BME280;73027;54.208;19.128;2023-12-20T05:58:29;100427.44;;;5.33;75.55
83140;BME280;73027;54.208;19.128;2023-12-20T06:00:54;100434.28;;;5.33;75.89
83140;BME280;73027;54.208;19.128;2023-12-20T06:03:20;100407.19;;;5.24;76.24
83140;BME280;73027;54.208;19.128;2023-12-20T06:05:45;100424.06;;;5.33;75.42
83140;BME280;73027;54.208;19.128;2023-12-20T06:08:11;100413.13;;;5.24;75.84
83140;BME280;73027;54.208;19.128;2023-12-20T06:10:36;100433.50;;;5.27;75.89
83140;BME280;73027;54.208;19.128;2023-12-20T06:13:02;100432.66;;;5.25;76.50
83140;BME280;73027;54.208;19.128;2023-12-20T06:15:29;100442.94;;;5.22;76.06
83140;BME280;73027;54.208;19.128;2023-12-20T06:17:54;100437.06;;;5.19;76.87
83140;BME280;73027;54.208;19.128;2023-12-20T06:20:20;100428.59;;;5.17;75.97
83140;BME280;73027;54.208;19.128;2023-12-20T06:22:45;100418.47;;;5.11;76.94
83140;BME280;73027;54.208;19.128;2023-12-20T06:25:11;100420.97;;;5.14;76.46
83140;BME280;73027;54.208;19.128;2023-12-20T06:27:36;100426.97;;;5.10;76.51
83140;BME280;73027;54.208;19.128;2023-12-20T06:30:02;100422.72;;;5.12;76.87
83140;BME280;73027;54.208;19.128;2023-12-20T06:32:27;100426.06;;;5.14;76.62
83140;BME280;73027;54.208;19.128;2023-12-20T06:34:54;100413.28;;;5.15;76.96
83140;BME280;73027;54.208;19.128;2023-12-20T06:37:20;100414.94;;;5.18;76.60
83140;BME280;73027;54.208;19.128;2023-12-20T06:39:45;100416.56;;;5.23;76.78
83140;BME280;73027;54.208;19.128;2023-12-20T06:42:12;100417.47;;;5.18;76.18
83140;BME280;73027;54.208;19.128;2023-12-20T06:44:37;100414.00;;;5.22;76.75
83140;BME280;73027;54.208;19.128;2023-12-20T06:47:04;100415.66;;;5.26;76.26
83140;BME280;73027;54.208;19.128;2023-12-20T06:49:29;100413.06;;;5.27;76.61
83140;BME280;73027;54.208;19.128;2023-12-20T06:51:55;100418.25;;;5.24;76.41
83140;BME280;73027;54.208;19.128;2023-12-20T06:54:20;100413.16;;;5.23;76.08
83140;BME280;73027;54.208;19.128;2023-12-20T06:56:46;100403.06;;;5.17;76.41
83140;BME280;73027;54.208;19.128;2023-12-20T06:59:11;100393.75;;;5.13;76.70
83140;BME280;73027;54.208;19.128;2023-12-20T07:01:37;100404.69;;;5.19;77.04
83140;BME280;73027;54.208;19.128;2023-12-20T07:04:03;100393.84;;;5.07;76.56
83140;BME280;73027;54.208;19.128;2023-12-20T07:06:30;100411.56;;;5.17;77.03
83140;BME280;73027;54.208;19.128;2023-12-20T07:08:55;100398.03;;;5.11;77.50
83140;BME280;73027;54.208;19.128;2023-12-20T07:11:20;100402.13;;;5.21;76.67
83140;BME280;73027;54.208;19.128;2023-12-20T07:13:46;100404.63;;;5.24;77.07
83140;BME280;73027;54.208;19.128;2023-12-20T07:16:11;100399.59;;;5.21;76.41
83140;BME280;73027;54.208;19.128;2023-12-20T07:18:37;100407.13;;;5.27;77.36
83140;BME280;73027;54.208;19.128;2023-12-20T07:21:03;100406.19;;;5.33;77.04
83140;BME280;73027;54.208;19.128;2023-12-20T07:23:29;100402.72;;;5.35;76.93
83140;BME280;73027;54.208;19.128;2023-12-20T07:25:55;100403.50;;;5.39;75.96
83140;BME280;73027;54.208;19.128;2023-12-20T07:28:20;100402.81;;;5.31;76.67
83140;BME280;73027;54.208;19.128;2023-12-20T07:30:45;100401.81;;;5.38;76.87
83140;BME280;73027;54.208;19.128;2023-12-20T07:33:19;100387.41;;;5.34;76.00
83140;BME280;73027;54.208;19.128;2023-12-20T07:35:44;100401.88;;;5.33;76.19
83140;BME280;73027;54.208;19.128;2023-12-20T07:38:10;100412.22;;;5.28;76.22
83140;BME280;73027;54.208;19.128;2023-12-20T07:40:37;100408.81;;;5.28;76.10
83140;BME280;73027;54.208;19.128;2023-12-20T07:43:03;100412.06;;;5.36;76.59
83140;BME280;73027;54.208;19.128;2023-12-20T07:45:28;100400.31;;;5.27;76.62
83140;BME280;73027;54.208;19.128;2023-12-20T07:47:55;100403.53;;;5.37;76.88
83140;BME280;73027;54.208;19.128;2023-12-20T07:50:20;100413.66;;;5.43;76.15
83140;BME280;73027;54.208;19.128;2023-12-20T07:52:46;100407.63;;;5.46;76.18
83140;BME280;73027;54.208;19.128;2023-12-20T07:55:11;100413.66;;;5.43;75.69
83140;BME280;73027;54.208;19.128;2023-12-20T07:57:36;100418.03;;;5.35;76.02
83140;BME280;73027;54.208;19.128;2023-12-20T08:00:03;100414.66;;;5.33;75.95
83140;BME280;73027;54.208;19.128;2023-12-20T08:02:29;100407.84;;;5.34;75.76
83140;BME280;73027;54.208;19.128;2023-12-20T08:04:54;100407.00;;;5.33;75.34
83140;BME280;73027;54.208;19.128;2023-12-20T08:07:20;100397.81;;;5.24;75.68
83140;BME280;73027;54.208;19.128;2023-12-20T08:09:45;100394.56;;;5.15;76.15
83140;BME280;73027;54.208;19.128;2023-12-20T08:12:10;100407.34;;;5.15;75.59
83140;BME280;73027;54.208;19.128;2023-12-20T08:14:36;100398.75;;;5.19;76.23
83140;BME280;73027;54.208;19.128;2023-12-20T08:17:02;100402.84;;;5.27;75.63
83140;BME280;73027;54.208;19.128;2023-12-20T08:19:28;100395.06;;;5.34;76.14
83140;BME280;73027;54.208;19.128;2023-12-20T08:21:53;100393.44;;;5.29;74.79
83140;BME280;73027;54.208;19.128;2023-12-20T08:24:18;100400.25;;;5.31;75.75
83140;BME280;73027;54.208;19.128;2023-12-20T08:26:44;100393.22;;;5.42;75.10
83140;BME280;73027;54.208;19.128;2023-12-20T08:29:13;100401.09;;;5.75;74.36
83140;BME280;73027;54.208;19.128;2023-12-20T08:31:38;100397.31;;;5.95;73.33
83140;BME280;73027;54.208;19.128;2023-12-20T08:34:04;100396.00;;;6.55;71.79
83140;BME280;73027;54.208;19.128;2023-12-20T08:36:29;100396.81;;;6.91;69.33
83140;BME280;73027;54.208;19.128;2023-12-20T08:38:54;100389.38;;;6.82;69.80
83140;BME280;73027;54.208;19.128;2023-12-20T08:41:20;100393.88;;;6.72;69.06
83140;BME280;73027;54.208;19.128;2023-12-20T08:43:46;100389.22;;;6.88;68.90
83140;BME280;73027;54.208;19.128;2023-12-20T08:46:11;100401.69;;;7.02;67.75
83140;BME280;73027;54.208;19.128;2023-12-20T08:48:37;100400.50;;;6.80;68.11
83140;BME280;73027;54.208;19.128;2023-12-20T08:51:03;100384.31;;;6.44;68.46
83140;BME280;73027;54.208;19.128;2023-12-20T08:53:29;100386.41;;;6.27;68.75
83140;BME280;73027;54.208;19.128;2023-12-20T08:55:54;100387.25;;;6.27;70.02
83140;BME280;73027;54.208;19.128;2023-12-20T08:58:26;100386.16;;;6.37;69.74
83140;BME280;73027;54.208;19.128;2023-12-20T09:00:51;100358.06;;;6.36;68.98
83140;BME280;73027;54.208;19.128;2023-12-20T09:03:17;100366.75;;;6.65;68.51
83140;BME280;73027;54.208;19.128;2023-12-20T09:05:42;100357.19;;;6.72;67.80
83140;BME280;73027;54.208;19.128;2023-12-20T09:08:07;100362.94;;;6.82;68.33
83140;BME280;73027;54.208;19.128;2023-12-20T09:10:35;100353.06;;;6.68;67.81
83140;BME280;73027;54.208;19.128;2023-12-20T09:13:00;100355.63;;;6.68;68.24
83140;BME280;73027;54.208;19.128;2023-12-20T09:15:26;100342.25;;;6.91;68.60
83140;BME280;73027;54.208;19.128;2023-12-20T09:17:53;100344.22;;;7.12;67.74
83140;BME280;73027;54.208;19.128;2023-12-20T09:20:19;100342.22;;;7.23;66.22
83140;BME280;73027;54.208;19.128;2023-12-20T09:22:44;100333.34;;;7.65;66.54
83140;BME280;73027;54.208;19.128;2023-12-20T09:25:10;100327.50;;;7.91;65.28
83140;BME280;73027;54.208;19.128;2023-12-20T09:27:36;100335.03;;;8.24;64.57
83140;BME280;73027;54.208;19.128;2023-12-20T09:30:02;100329.28;;;8.45;64.06
83140;BME280;73027;54.208;19.128;2023-12-20T09:32:29;100329.59;;;8.87;62.99
83140;BME280;73027;54.208;19.128;2023-12-20T09:34:55;100325.50;;;9.77;61.33
83140;BME280;73027;54.208;19.128;2023-12-20T09:37:20;100306.50;;;10.68;58.34
83140;BME280;73027;54.208;19.128;2023-12-20T09:39:45;100308.03;;;11.52;55.21
83140;BME280;73027;54.208;19.128;2023-12-20T09:42:12;100308.59;;;12.50;53.33
83140;BME280;73027;54.208;19.128;2023-12-20T09:44:42;100288.75;;;12.85;50.81
83140;BME280;73027;54.208;19.128;2023-12-20T09:47:09;100300.88;;;13.17;50.42
83140;BME280;73027;54.208;19.128;2023-12-20T09:49:36;100298.78;;;13.41;48.41
83140;BME280;73027;54.208;19.128;2023-12-20T09:52:04;100284.97;;;13.25;47.88
83140;BME280;73027;54.208;19.128;2023-12-20T09:54:31;100292.31;;;12.65;48.77
83140;BME280;73027;54.208;19.128;2023-12-20T09:56:56;100290.09;;;11.48;50.66
83140;BME280;73027;54.208;19.128;2023-12-20T09:59:23;100282.41;;;10.69;54.27
83140;BME280;73027;54.208;19.128;2023-12-20T10:01:50;100288.09;;;11.16;53.77
83140;BME280;73027;54.208;19.128;2023-12-20T10:04:16;100266.72;;;11.72;52.09
83140;BME280;73027;54.208;19.128;2023-12-20T10:06:42;100258.22;;;12.06;51.40
83140;BME280;73027;54.208;19.128;2023-12-20T10:09:11;100270.66;;;12.33;51.53
83140;BME280;73027;54.208;19.128;2023-12-20T10:11:38;100278.75;;;12.95;49.31
83140;BME280;73027;54.208;19.128;2023-12-20T10:14:04;100245.28;;;12.41;49.68
83140;BME280;73027;54.208;19.128;2023-12-20T10:16:30;100262.69;;;11.85;50.57
83140;BME280;73027;54.208;19.128;2023-12-20T10:18:56;100247.88;;;11.70;52.68
83140;BME280;73027;54.208;19.128;2023-12-20T10:21:22;100251.91;;;11.57;52.18
83140;BME280;73027;54.208;19.128;2023-12-20T10:23:48;100242.84;;;11.29;52.16
83140;BME280;73027;54.208;19.128;2023-12-20T10:26:21;100238.91;;;9.99;54.81
83140;BME280;73027;54.208;19.128;2023-12-20T10:28:53;100241.44;;;9.11;57.52
83140;BME280;73027;54.208;19.128;2023-12-20T10:31:33;100238.03;;;8.36;59.92
83140;BME280;73027;54.208;19.128;2023-12-20T10:34:01;100225.28;;;8.07;62.65
83140;BME280;73027;54.208;19.128;2023-12-20T10:36:31;100230.13;;;7.88;63.16
83140;BME280;73027;54.208;19.128;2023-12-20T10:38:57;100222.78;;;7.78;64.10
83140;BME280;73027;54.208;19.128;2023-12-20T10:41:31;100226.81;;;7.57;64.56
83140;BME280;73027;54.208;19.128;2023-12-20T10:44:01;100222.88;;;7.45;65.92
83140;BME280;73027;54.208;19.128;2023-12-20T10:46:27;100207.97;;;7.30;67.21
83140;BME280;73027;54.208;19.128;2023-12-20T10:48:59;100212.22;;;7.02;67.18
83140;BME280;73027;54.208;19.128;2023-12-20T10:51:27;100198.88;;;6.91;68.24
83140;BME280;73027;54.208;19.128;2023-12-20T10:53:55;100195.56;;;6.87;68.05
83140;BME280;73027;54.208;19.128;2023-12-20T10:56:21;100190.06;;;6.70;68.55
83140;BME280;73027;54.208;19.128;2023-12-20T10:58:48;100183.91;;;6.45;69.48
83140;BME280;73027;54.208;19.128;2023-12-20T11:01:16;100180.06;;;6.29;70.66
83140;BME280;73027;54.208;19.128;2023-12-20T11:03:51;100165.69;;;6.23;70.95
83140;BME280;73027;54.208;19.128;2023-12-20T11:06:26;100166.75;;;6.16;71.46
83140;BME280;73027;54.208;19.128;2023-12-20T11:09:34;100174.97;;;6.27;72.13
83140;BME280;73027;54.208;19.128;2023-12-20T11:12:23;100162.56;;;6.13;71.74
83140;BME280;73027;54.208;19.128;2023-12-20T11:14:53;100173.09;;;6.00;72.01
83140;BME280;73027;54.208;19.128;2023-12-20T11:17:21;100149.56;;;5.87;72.46
83140;BME280;73027;54.208;19.128;2023-12-20T11:22:20;100159.97;;;5.78;73.75
83140;BME280;73027;54.208;19.128;2023-12-20T11:24:47;100155.00;;;5.72;74.62
83140;BME280;73027;54.208;19.128;2023-12-20T11:27:13;100143.22;;;5.66;75.30
83140;BME280;73027;54.208;19.128;2023-12-20T11:29:39;100123.00;;;5.57;75.38
83140;BME280;73027;54.208;19.128;2023-12-20T11:34:50;100116.63;;;5.75;75.03
83140;BME280;73027;54.208;19.128;2023-12-20T11:37:16;100102.59;;;5.56;75.14
83140;BME280;73027;54.208;19.128;2023-12-20T11:39:42;100115.81;;;5.73;75.39
83140;BME280;73027;54.208;19.128;2023-12-20T11:42:10;100104.03;;;5.67;75.47
83140;BME280;73027;54.208;19.128;2023-12-20T11:44:36;100105.78;;;5.64;76.32
83140;BME280;73027;54.208;19.128;2023-12-20T11:47:02;100105.75;;;5.65;75.68
83140;BME280;73027;54.208;19.128;2023-12-20T11:49:27;100099.78;;;5.66;75.99
83140;BME280;73027;54.208;19.128;2023-12-20T11:51:56;100108.16;;;5.71;76.79
83140;BME280;73027;54.208;19.128;2023-12-20T11:54:21;100101.47;;;5.67;76.03
83140;BME280;73027;54.208;19.128;2023-12-20T11:56:47;100088.75;;;5.64;75.97
83140;BME280;73027;54.208;19.128;2023-12-20T11:59:13;100068.66;;;5.51;76.64
83140;BME280;73027;54.208;19.128;2023-12-20T12:01:38;100083.25;;;5.80;76.24
83140;BME280;73027;54.208;19.128;2023-12-20T12:04:05;100063.56;;;5.83;75.80
83140;BME280;73027;54.208;19.128;2023-12-20T12:06:30;100059.38;;;5.82;75.33
83140;BME280;73027;54.208;19.128;2023-12-20T12:08:57;100060.22;;;5.83;76.25
83140;BME280;73027;54.208;19.128;2023-12-20T12:11:23;100045.69;;;5.83;75.93
83140;BME280;73027;54.208;19.128;2023-12-20T12:13:48;100050.78;;;5.83;75.76
83140;BME280;73027;54.208;19.128;2023-12-20T12:16:17;100051.69;;;5.82;76.26
83140;BME280;73027;54.208;19.128;2023-12-20T12:18:44;100042.63;;;5.70;75.96
83140;BME280;73027;54.208;19.128;2023-12-20T12:21:10;100058.91;;;5.66;76.30
83140;BME280;73027;54.208;19.128;2023-12-20T12:23:36;100042.00;;;5.61;76.76
83140;BME280;73027;54.208;19.128;2023-12-20T12:26:04;100040.09;;;5.69;77.23
83140;BME280;73027;54.208;19.128;2023-12-20T12:28:29;100036.50;;;5.76;77.85
83140;BME280;73027;54.208;19.128;2023-12-20T12:30:58;100029.53;;;5.83;77.96
83140;BME280;73027;54.208;19.128;2023-12-20T12:33:25;100027.84;;;5.82;76.92
83140;BME280;73027;54.208;19.128;2023-12-20T12:35:51;100024.47;;;5.81;77.40
83140;BME280;73027;54.208;19.128;2023-12-20T12:38:19;100021.94;;;5.80;77.23
83140;BME280;73027;54.208;19.128;2023-12-20T12:40:45;100019.22;;;5.86;76.99
83140;BME280;73027;54.208;19.128;2023-12-20T12:43:10;100008.09;;;5.90;77.52
83140;BME280;73027;54.208;19.128;2023-12-20T12:45:35;100002.88;;;5.93;76.69
83140;BME280;73027;54.208;19.128;2023-12-20T12:48:01;100002.75;;;5.97;77.18
83140;BME280;73027;54.208;19.128;2023-12-20T12:50:27;100001.41;;;6.15;77.18